Time;durP1;ratioP1;P1;durP2;ratioP2;P2;SDS_P1;SDS_P2;PMS_P1;PMS_P2;Temp;Humidity;BMP_temperature;BMP_pressure;BME280_temperature;BME280_humidity;BME280_pressure;Samples;Min_cycle;Max_cycle;Signal;HPM_P1;HPM_P2
2023/10/23 00:01:23;;;;;;;11.10;7.68;;;9.60;99.90;;;;;;5028614;28;20085;-62
2023/10/23 00:03:50;;;;;;;10.20;7.82;;;9.60;99.90;;;;;;5033642;28;20403;-63
2023/10/23 00:06:17;;;;;;;12.13;8.02;;;9.60;99.90;;;;;;5031020;28;20107;-65
2023/10/23 00:08:44;;;;;;;12.55;7.82;;;9.60;99.90;;;;;;5032840;28;20068;-61
2023/10/23 00:11:28;;;;;;;13.63;7.80;;;9.60;99.90;;;;;;5031630;28;20139;-63
2023/10/23 00:13:56;;;;;;;7.82;6.72;;;9.60;99.90;;;;;;5032047;28;20094;-64
2023/10/23 00:16:23;;;;;;;8.60;7.30;;;9.60;99.90;;;;;;5031770;28;20088;-64
2023/10/23 00:18:51;;;;;;;9.10;7.25;;;9.60;99.90;;;;;;5027694;28;20041;-61
2023/10/23 00:21:18;;;;;;;11.85;8.00;;;9.60;99.90;;;;;;5027880;28;20052;-66
2023/10/23 00:23:45;;;;;;;9.52;7.15;;;9.60;99.90;;;;;;5042693;28;20045;-64
2023/10/23 00:26:12;;;;;;;8.85;7.13;;;9.60;99.90;;;;;;5033397;28;20076;-64
2023/10/23 00:28:44;;;;;;;13.82;7.75;;;9.60;99.90;;;;;;5028647;28;20045;-61
2023/10/23 00:31:11;;;;;;;9.02;6.45;;;9.60;99.90;;;;;;5032866;28;20037;-61
2023/10/23 00:33:37;;;;;;;12.07;8.13;;;9.60;99.90;;;;;;5030339;28;20056;-61
2023/10/23 00:36:05;;;;;;;8.50;7.15;;;9.60;99.90;;;;;;5033483;28;20037;-63
2023/10/23 00:38:32;;;;;;;12.15;8.07;;;9.60;99.90;;;;;;5026329;28;20056;-61
2023/10/23 00:40:58;;;;;;;7.88;5.85;;;9.60;99.90;;;;;;5031263;28;20049;-64
2023/10/23 00:43:26;;;;;;;8.15;6.45;;;9.60;99.90;;;;;;5028245;28;20045;-61
2023/10/23 00:45:59;;;;;;;10.13;6.80;;;9.60;99.90;;;;;;5032081;28;20046;-61
2023/10/23 00:48:27;;;;;;;10.35;7.85;;;9.60;99.90;;;;;;5032294;28;20068;-61
2023/10/23 00:50:57;;;;;;;11.20;8.13;;;9.60;99.90;;;;;;5034999;28;20041;-66
2023/10/23 00:53:27;;;;;;;10.93;9.02;;;9.60;99.90;;;;;;5033879;28;20498;-61
2023/10/23 00:55:56;;;;;;;;;;;9.60;99.90;;;;;;5028615;28;20045;-63
2023/10/23 00:58:27;;;;;;;10.10;7.53;;;9.60;99.90;;;;;;5028233;28;19921;-60
2023/10/23 01:00:55;;;;;;;10.50;8.23;;;9.60;99.90;;;;;;5028669;28;20387;-68
2023/10/23 01:03:22;;;;;;;12.02;8.52;;;9.60;99.90;;;;;;5032007;28;20053;-61
2023/10/23 01:05:50;;;;;;;14.50;8.60;;;9.60;99.90;;;;;;5035433;28;20120;-66
2023/10/23 01:08:17;;;;;;;10.80;8.27;;;9.60;99.90;;;;;;5031190;28;20132;-61
2023/10/23 01:10:45;;;;;;;11.43;8.15;;;9.60;99.90;;;;;;5029672;28;20038;-61
2023/10/23 01:13:12;;;;;;;13.07;8.52;;;9.60;99.90;;;;;;5029108;28;20041;-62
2023/10/23 01:15:39;;;;;;;11.45;8.35;;;9.60;99.90;;;;;;5029371;28;20103;-62
2023/10/23 01:18:06;;;;;;;10.27;7.30;;;9.60;99.90;;;;;;5028970;28;20047;-61
2023/10/23 01:20:33;;;;;;;9.63;7.38;;;9.60;99.90;;;;;;5035617;28;20069;-62
2023/10/23 01:23:02;;;;;;;10.68;7.90;;;9.60;99.90;;;;;;5032266;28;20045;-62
2023/10/23 01:25:29;;;;;;;14.23;8.38;;;9.60;99.90;;;;;;5031530;28;20080;-62
2023/10/23 01:27:56;;;;;;;12.32;8.45;;;9.60;99.90;;;;;;5026994;28;20051;-67
2023/10/23 01:30:23;;;;;;;12.18;8.27;;;9.60;99.90;;;;;;5032368;28;20053;-62
2023/10/23 01:32:50;;;;;;;11.15;8.35;;;9.50;99.90;;;;;;5029955;28;20454;-64
2023/10/23 01:35:19;;;;;;;12.23;8.77;;;9.50;99.90;;;;;;5034765;28;20033;-65
2023/10/23 01:37:47;;;;;;;11.75;9.05;;;9.50;99.90;;;;;;5029866;28;20396;-62
2023/10/23 01:40:14;;;;;;;10.63;8.57;;;9.50;99.90;;;;;;5026582;28;20068;-63
2023/10/23 01:42:42;;;;;;;11.75;7.15;;;9.50;99.90;;;;;;5027386;28;20115;-62
2023/10/23 01:45:10;;;;;;;8.80;6.20;;;9.50;99.90;;;;;;5031062;28;20130;-64
2023/10/23 01:47:37;;;;;;;9.65;7.03;;;9.50;99.90;;;;;;5031072;28;20049;-64
2023/10/23 01:50:05;;;;;;;8.40;5.55;;;9.50;99.90;;;;;;5025106;28;20157;-62
2023/10/23 01:52:32;;;;;;;7.35;5.88;;;9.50;99.90;;;;;;5020263;28;20053;-61
2023/10/23 01:54:59;;;;;;;7.18;5.93;;;9.50;99.90;;;;;;5027592;28;20103;-63
2023/10/23 01:57:27;;;;;;;7.70;5.50;;;9.50;99.90;;;;;;5021267;28;20107;-61
2023/10/23 01:59:55;;;;;;;7.05;6.05;;;9.50;99.90;;;;;;5035644;28;20048;-64
2023/10/23 02:02:22;;;;;;;7.47;5.97;;;9.50;99.90;;;;;;5027820;28;20061;-62
2023/10/23 02:04:49;;;;;;;6.85;5.68;;;9.50;99.90;;;;;;5030058;28;20691;-63
2023/10/23 02:07:16;;;;;;;10.35;7.30;;;9.50;99.90;;;;;;5026220;28;20064;-67
2023/10/23 02:09:43;;;;;;;7.50;6.00;;;9.50;99.90;;;;;;5025435;28;20111;-69
2023/10/23 02:12:10;;;;;;;6.93;5.13;;;9.50;99.90;;;;;;5029137;28;20043;-67
2023/10/23 02:14:38;;;;;;;6.35;5.38;;;9.50;99.90;;;;;;5033150;28;20056;-62
2023/10/23 02:17:05;;;;;;;6.90;6.15;;;9.50;99.90;;;;;;5027876;28;20115;-62
2023/10/23 02:19:34;;;;;;;9.60;6.18;;;9.50;99.90;;;;;;5043466;28;20056;-65
2023/10/23 02:22:01;;;;;;;7.95;5.93;;;9.50;99.90;;;;;;5026683;28;20049;-62
2023/10/23 02:24:28;;;;;;;7.93;5.40;;;9.50;99.90;;;;;;5031643;28;20180;-62
2023/10/23 02:26:56;;;;;;;7.93;5.30;;;9.50;99.90;;;;;;5031959;28;20479;-65
2023/10/23 02:29:23;;;;;;;9.30;5.95;;;9.50;99.90;;;;;;5032532;28;20049;-62
2023/10/23 02:31:50;;;;;;;8.05;6.05;;;9.50;99.90;;;;;;5025346;28;20357;-64
2023/10/23 02:34:17;;;;;;;11.85;7.00;;;9.50;99.90;;;;;;5025800;28;20042;-61
2023/10/23 02:36:44;;;;;;;9.05;5.35;;;9.50;99.90;;;;;;5025717;28;20049;-64
2023/10/23 02:39:11;;;;;;;9.20;6.88;;;9.50;99.90;;;;;;5029293;28;20569;-62
2023/10/23 02:41:38;;;;;;;10.75;6.40;;;9.40;99.90;;;;;;5033487;28;20052;-61
2023/10/23 02:44:05;;;;;;;9.82;6.75;;;9.50;99.90;;;;;;5026974;28;20125;-61
2023/10/23 02:46:38;;;;;;;10.75;7.22;;;9.50;99.90;;;;;;5030975;28;20123;-62
2023/10/23 02:49:05;;;;;;;8.57;6.82;;;9.40;99.90;;;;;;5039307;28;20411;-61
2023/10/23 02:51:32;;;;;;;10.02;6.82;;;9.40;99.90;;;;;;5032519;28;20045;-64
2023/10/23 02:53:59;;;;;;;11.43;6.80;;;9.50;99.90;;;;;;5034959;28;20127;-67
2023/10/23 02:56:26;;;;;;;9.60;7.20;;;9.40;99.90;;;;;;5033209;28;20099;-61
2023/10/23 02:58:53;;;;;;;10.05;6.82;;;9.50;99.90;;;;;;5027154;28;20043;-63
2023/10/23 03:01:23;;;;;;;9.13;6.03;;;9.50;99.90;;;;;;5031718;28;20116;-62
2023/10/23 03:03:51;;;;;;;;;;;9.50;99.90;;;;;;5030050;28;20037;-62
2023/10/23 03:06:18;;;;;;;6.88;5.30;;;9.40;99.90;;;;;;5024969;28;19925;-60
2023/10/23 03:08:45;;;;;;;7.32;5.63;;;9.50;99.90;;;;;;5029419;28;20057;-61
2023/10/23 03:11:12;;;;;;;9.00;6.53;;;9.50;99.90;;;;;;5034677;28;20060;-67
2023/10/23 03:13:39;;;;;;;9.07;6.20;;;9.50;99.90;;;;;;5041510;28;20699;-61
2023/10/23 03:16:07;;;;;;;10.68;6.40;;;9.50;99.90;;;;;;5030040;28;20053;-61
2023/10/23 03:18:34;;;;;;;8.45;5.85;;;9.50;99.90;;;;;;5034697;28;20075;-67
2023/10/23 03:21:02;;;;;;;8.15;5.90;;;9.40;99.90;;;;;;5041651;28;20499;-62
2023/10/23 03:23:30;;;;;;;9.45;6.40;;;9.50;99.90;;;;;;5035406;28;20755;-67
2023/10/23 03:25:57;;;;;;;8.10;6.50;;;9.50;99.90;;;;;;5037254;28;20049;-67
2023/10/23 03:28:24;;;;;;;8.82;5.60;;;9.50;99.90;;;;;;5027906;28;20061;-63
2023/10/23 03:30:51;;;;;;;10.98;7.10;;;9.50;99.90;;;;;;5030338;28;20434;-61
2023/10/23 03:33:18;;;;;;;9.02;6.47;;;9.50;99.90;;;;;;5030843;28;20056;-65
2023/10/23 03:35:45;;;;;;;10.30;6.43;;;9.40;99.90;;;;;;5037886;28;20057;-63
2023/10/23 03:38:13;;;;;;;10.68;7.22;;;9.40;99.90;;;;;;5031145;28;20088;-62
2023/10/23 03:40:40;;;;;;;8.45;6.22;;;9.40;99.90;;;;;;5035419;28;20064;-64
2023/10/23 03:43:08;;;;;;;9.80;6.28;;;9.40;99.90;;;;;;5026924;28;20053;-64
2023/10/23 03:45:38;;;;;;;12.80;9.68;;;9.40;99.90;;;;;;5033559;28;20052;-63
2023/10/23 03:48:05;;;;;;;8.38;6.00;;;9.50;99.90;;;;;;5039880;28;20459;-63
2023/10/23 03:50:36;;;;;;;10.85;7.85;;;9.40;99.90;;;;;;5034443;28;20048;-69
2023/10/23 03:53:03;;;;;;;10.95;7.30;;;9.40;99.90;;;;;;5029356;28;20045;-62
2023/10/23 03:55:30;;;;;;;9.82;7.90;;;9.40;99.90;;;;;;5023547;28;20038;-63
2023/10/23 03:57:57;;;;;;;8.43;5.72;;;9.40;99.90;;;;;;5026056;28;20112;-62
2023/10/23 04:00:24;;;;;;;8.77;7.05;;;9.40;99.90;;;;;;5030610;28;20038;-62
2023/10/23 04:02:52;;;;;;;12.85;7.90;;;9.40;99.90;;;;;;5028447;28;20419;-63
2023/10/23 04:05:19;;;;;;;9.75;7.25;;;9.40;99.90;;;;;;5029061;28;20088;-64
2023/10/23 04:07:45;;;;;;;10.52;6.80;;;9.40;99.90;;;;;;5035029;28;20049;-63
2023/10/23 04:10:15;;;;;;;9.05;6.38;;;9.40;99.90;;;;;;5023924;28;20049;-63
2023/10/23 04:12:42;;;;;;;8.82;6.35;;;9.40;99.90;;;;;;5035722;28;20053;-62
2023/10/23 04:15:09;;;;;;;8.52;6.75;;;9.40;99.90;;;;;;5033104;28;20041;-62
2023/10/23 04:17:36;;;;;;;12.15;7.05;;;9.40;99.90;;;;;;5035925;28;20095;-62
2023/10/23 04:20:04;;;;;;;8.52;6.30;;;9.40;99.90;;;;;;5034164;28;20049;-61
2023/10/23 04:22:31;;;;;;;12.50;8.20;;;9.40;99.90;;;;;;5032024;28;20045;-62
2023/10/23 04:24:58;;;;;;;11.02;7.38;;;9.40;99.90;;;;;;5033468;28;20642;-67
2023/10/23 04:27:25;;;;;;;8.23;5.95;;;9.40;99.90;;;;;;5028778;28;20122;-66
2023/10/23 04:29:53;;;;;;;8.88;5.88;;;9.40;99.90;;;;;;5033818;28;20056;-64
2023/10/23 04:32:20;;;;;;;10.75;5.97;;;9.40;99.90;;;;;;5035965;28;20135;-61
2023/10/23 04:34:47;;;;;;;7.60;6.32;;;9.50;99.90;;;;;;5034969;28;20103;-61
2023/10/23 04:37:14;;;;;;;12.10;6.72;;;9.40;99.90;;;;;;5026679;28;20442;-62
2023/10/23 04:39:40;;;;;;;8.77;5.28;;;9.40;99.90;;;;;;5045363;28;20457;-61
2023/10/23 04:42:08;;;;;;;11.80;7.82;;;9.50;99.90;;;;;;5030662;28;20048;-63
2023/10/23 04:44:34;;;;;;;7.32;5.68;;;9.40;99.90;;;;;;5036567;28;20041;-63
2023/10/23 04:47:02;;;;;;;8.77;5.25;;;9.40;99.90;;;;;;5032904;28;20045;-62
2023/10/23 04:49:28;;;;;;;7.82;5.78;;;9.50;99.90;;;;;;5029304;28;20095;-61
2023/10/23 04:51:55;;;;;;;9.60;6.28;;;9.40;99.90;;;;;;5025685;28;20037;-69
2023/10/23 04:54:22;;;;;;;10.60;6.25;;;9.40;99.90;;;;;;5030301;28;20128;-63
2023/10/23 04:56:49;;;;;;;7.97;5.30;;;9.40;99.90;;;;;;5038577;28;20120;-61
2023/10/23 04:59:16;;;;;;;6.13;4.95;;;9.40;99.90;;;;;;5030891;28;20045;-63
2023/10/23 05:01:43;;;;;;;7.32;4.82;;;9.40;99.90;;;;;;5031288;28;20045;-65
2023/10/23 05:04:10;;;;;;;7.93;4.95;;;9.40;99.90;;;;;;5021176;28;20040;-63
2023/10/23 05:06:38;;;;;;;6.28;4.40;;;9.40;99.90;;;;;;5028031;28;20146;-63
2023/10/23 05:09:05;;;;;;;6.55;5.00;;;9.40;99.90;;;;;;5034378;28;20046;-64
2023/10/23 05:11:32;;;;;;;6.85;5.32;;;9.40;99.90;;;;;;5030413;28;20092;-61
2023/10/23 05:13:59;;;;;;;6.40;5.47;;;9.40;99.90;;;;;;5032318;28;20037;-66
2023/10/23 05:16:26;;;;;;;8.52;5.03;;;9.40;99.90;;;;;;5027107;28;20049;-63
2023/10/23 05:18:53;;;;;;;6.63;4.85;;;9.40;99.90;;;;;;5028228;28;20488;-63
2023/10/23 05:21:20;;;;;;;8.70;5.78;;;9.40;99.90;;;;;;5035247;28;20041;-64
2023/10/23 05:23:47;;;;;;;7.10;5.72;;;9.40;99.90;;;;;;5025057;28;20064;-60
2023/10/23 05:26:14;;;;;;;6.35;4.68;;;9.40;99.90;;;;;;5028171;28;20060;-61
2023/10/23 05:28:41;;;;;;;5.53;4.90;;;9.40;99.90;;;;;;5026883;28;20045;-64
2023/10/23 05:31:09;;;;;;;6.35;4.70;;;9.40;99.90;;;;;;5029646;28;20068;-61
2023/10/23 05:33:37;;;;;;;7.88;5.22;;;9.40;99.90;;;;;;5029058;28;20041;-62
2023/10/23 05:36:06;;;;;;;6.05;5.43;;;9.40;99.90;;;;;;5027630;28;20041;-62
2023/10/23 05:38:33;;;;;;;8.52;4.55;;;9.40;99.90;;;;;;5031205;28;20055;-69
2023/10/23 05:41:00;;;;;;;8.63;5.72;;;9.40;99.90;;;;;;5027000;28;20042;-64
2023/10/23 05:43:27;;;;;;;9.75;5.95;;;9.40;99.90;;;;;;5027911;28;20115;-61
2023/10/23 05:46:01;;;;;;;7.00;4.90;;;9.40;99.90;;;;;;5024957;28;20068;-65
2023/10/23 05:48:28;;;;;;;7.10;4.95;;;9.40;99.90;;;;;;5027976;28;20045;-62
2023/10/23 05:51:03;;;;;;;9.43;5.55;;;9.40;99.90;;;;;;5029344;28;20052;-66
2023/10/23 05:53:31;;;;;;;9.93;6.18;;;9.40;99.90;;;;;;5024609;28;20055;-66
2023/10/23 05:56:03;;;;;;;9.18;5.47;;;9.40;99.90;;;;;;5028492;28;20052;-70
2023/10/23 05:58:35;;;;;;;8.70;5.82;;;9.40;99.90;;;;;;5021109;28;20060;-69
2023/10/23 06:01:09;;;;;;;10.70;6.72;;;9.50;99.90;;;;;;5030043;28;20033;-65
2023/10/23 06:03:36;;;;;;;7.95;6.05;;;9.50;99.90;;;;;;5027041;28;20052;-63
2023/10/23 06:06:04;;;;;;;7.70;6.07;;;9.50;99.90;;;;;;5026888;28;20124;-62
2023/10/23 06:08:31;;;;;;;9.13;6.70;;;9.50;99.90;;;;;;5030381;28;20065;-61
2023/10/23 06:10:59;;;;;;;8.50;6.22;;;9.50;99.90;;;;;;5025502;28;20447;-71
2023/10/23 06:13:26;;;;;;;7.20;5.97;;;9.50;99.90;;;;;;5036830;28;20678;-64
2023/10/23 06:15:53;;;;;;;8.55;6.65;;;9.50;99.90;;;;;;5028455;28;20045;-64
2023/10/23 06:18:20;;;;;;;8.95;5.93;;;9.50;99.90;;;;;;5028189;28;20045;-63
2023/10/23 06:20:55;;;;;;;10.43;6.80;;;9.50;99.90;;;;;;5031399;28;20038;-63
2023/10/23 06:23:23;;;;;;;9.55;6.30;;;9.50;99.90;;;;;;5026588;28;20068;-61
2023/10/23 06:25:54;;;;;;;9.48;5.22;;;9.50;99.90;;;;;;5030290;28;20045;-61
2023/10/23 06:28:22;;;;;;;6.72;5.45;;;9.50;99.90;;;;;;5032396;28;20038;-64
2023/10/23 06:30:48;;;;;;;6.18;5.57;;;9.50;99.90;;;;;;5030599;28;20049;-61
2023/10/23 06:33:15;;;;;;;9.13;5.30;;;9.50;99.90;;;;;;5028586;28;20049;-61
2023/10/23 06:35:42;;;;;;;10.25;5.13;;;9.50;99.90;;;;;;5026113;28;20069;-61
2023/10/23 06:38:09;;;;;;;6.82;4.90;;;9.50;99.90;;;;;;5030475;28;20065;-62
2023/10/23 06:40:36;;;;;;;7.68;5.55;;;9.50;99.90;;;;;;5029843;28;20550;-64
2023/10/23 06:43:03;;;;;;;6.63;4.03;;;9.50;99.90;;;;;;5024586;28;20088;-61
2023/10/23 06:45:30;;;;;;;5.28;4.10;;;9.50;99.90;;;;;;5029129;28;20045;-67
2023/10/23 06:48:16;;;;;;;8.48;5.97;;;9.50;99.90;;;;;;5025778;28;20046;-62
2023/10/23 06:50:49;;;;;;;6.28;4.57;;;9.50;99.90;;;;;;5028938;28;20061;-60
2023/10/23 06:53:16;;;;;;;5.63;4.43;;;9.50;99.90;;;;;;5041177;28;20048;-62
2023/10/23 06:55:51;;;;;;;4.85;3.47;;;9.50;99.90;;;;;;5035651;28;20049;-60
2023/10/23 06:58:21;;;;;;;4.55;4.15;;;9.50;99.90;;;;;;5034301;28;20049;-66
2023/10/23 07:00:48;;;;;;;;;;;9.50;99.90;;;;;;5032003;28;20055;-64
2023/10/23 07:03:16;;;;;;;5.28;3.40;;;9.50;99.90;;;;;;5030076;28;20391;-61
2023/10/23 07:05:43;;;;;;;6.20;4.35;;;9.50;99.90;;;;;;5033603;28;20076;-62
2023/10/23 07:08:10;;;;;;;7.97;3.38;;;9.50;99.90;;;;;;5032147;28;20061;-62
2023/10/23 07:10:40;;;;;;;5.15;3.58;;;9.50;99.90;;;;;;5032682;28;20045;-61
2023/10/23 07:13:07;;;;;;;3.65;3.35;;;9.60;99.90;;;;;;5028679;28;20041;-61
2023/10/23 07:15:49;;;;;;;4.18;3.25;;;9.60;99.90;;;;;;5033629;28;20048;-65
2023/10/23 07:18:19;;;;;;;3.63;3.33;;;9.60;99.90;;;;;;5040088;28;20400;-61
2023/10/23 07:20:55;;;;;;;3.53;3.22;;;9.50;99.90;;;;;;5038579;28;20041;-61
2023/10/23 07:23:23;;;;;;;4.13;2.60;;;9.60;99.90;;;;;;5035619;28;20048;-61
2023/10/23 07:26:19;;;;;;;4.07;3.75;;;9.60;99.90;;;;;;5030589;28;20156;-64
2023/10/23 07:28:46;;;;;;;4.32;3.92;;;9.60;99.90;;;;;;5021079;28;20057;-61
2023/10/23 07:31:13;;;;;;;6.32;3.17;;;9.60;99.90;;;;;;5028530;28;20099;-61
2023/10/23 07:33:40;;;;;;;5.45;2.58;;;9.60;99.90;;;;;;5028340;28;20049;-65
2023/10/23 07:36:09;;;;;;;4.88;2.80;;;9.60;99.90;;;;;;5031974;28;20075;-64
2023/10/23 07:38:37;;;;;;;3.20;2.90;;;9.60;99.90;;;;;;5029078;28;20041;-67
2023/10/23 07:41:04;;;;;;;3.28;2.78;;;9.60;99.90;;;;;;5028958;28;20049;-63
2023/10/23 07:43:31;;;;;;;4.25;2.95;;;9.60;99.90;;;;;;5030041;28;20052;-68
2023/10/23 07:46:08;;;;;;;3.40;3.03;;;9.60;99.90;;;;;;5032625;28;20053;-65
2023/10/23 07:48:44;;;;;;;5.07;4.07;;;9.60;99.90;;;;;;5028656;28;20060;-67
2023/10/23 07:51:12;;;;;;;4.57;2.88;;;9.60;99.90;;;;;;5028058;28;20120;-67
2023/10/23 07:53:39;;;;;;;4.45;3.85;;;9.60;99.90;;;;;;5032682;28;20045;-67
2023/10/23 07:56:06;;;;;;;4.65;3.45;;;9.70;99.90;;;;;;5034305;28;20045;-66
2023/10/23 07:58:33;;;;;;;6.57;3.50;;;9.70;99.90;;;;;;5028048;28;20053;-61
2023/10/23 08:01:08;;;;;;;4.82;3.47;;;9.70;99.90;;;;;;5031383;28;20049;-70
2023/10/23 08:03:36;;;;;;;5.40;3.38;;;9.70;99.90;;;;;;5032180;28;20064;-62
2023/10/23 08:06:05;;;;;;;3.75;3.40;;;9.70;99.90;;;;;;5032507;28;20048;-61
2023/10/23 08:08:34;;;;;;;3.88;3.47;;;9.70;99.90;;;;;;5031840;28;20089;-64
2023/10/23 08:11:06;;;;;;;8.32;5.18;;;9.70;99.90;;;;;;5034400;28;20629;-65
2023/10/23 08:13:34;;;;;;;5.95;3.88;;;9.80;99.90;;;;;;5028094;28;20452;-61
2023/10/23 08:16:01;;;;;;;4.60;4.07;;;9.80;99.90;;;;;;5028032;28;20049;-68
2023/10/23 08:18:29;;;;;;;5.10;3.95;;;9.80;99.90;;;;;;5033278;28;20074;-65
2023/10/23 08:21:13;;;;;;;7.13;4.57;;;9.80;99.90;;;;;;5031223;28;20120;-62
2023/10/23 08:23:41;;;;;;;3.97;3.42;;;9.80;99.90;;;;;;5028683;28;20129;-63
2023/10/23 08:26:08;;;;;;;3.70;3.40;;;9.80;99.90;;;;;;5029183;28;20041;-60
2023/10/23 08:28:35;;;;;;;5.10;3.13;;;9.80;99.90;;;;;;5030327;28;20052;-60
2023/10/23 08:31:05;;;;;;;3.70;3.40;;;9.80;99.90;;;;;;5032566;28;20045;-61
2023/10/23 08:33:43;;;;;;;6.40;3.33;;;9.80;99.90;;;;;;5027519;28;20079;-62
2023/10/23 08:36:10;;;;;;;4.00;3.10;;;9.80;99.90;;;;;;5029586;28;20152;-62
2023/10/23 08:38:37;;;;;;;4.38;3.88;;;9.90;99.90;;;;;;5028103;28;20047;-63
2023/10/23 08:41:04;;;;;;;4.93;3.67;;;9.90;99.90;;;;;;5031723;28;20135;-61
2023/10/23 08:43:31;;;;;;;4.40;3.45;;;9.90;99.90;;;;;;5031770;28;20624;-62
2023/10/23 08:45:59;;;;;;;4.57;3.15;;;9.90;99.90;;;;;;5028607;28;20380;-68
2023/10/23 08:48:27;;;;;;;4.13;3.10;;;10.00;99.90;;;;;;5028996;28;20081;-61
2023/10/23 08:50:57;;;;;;;3.75;3.40;;;10.00;99.90;;;;;;5028413;28;20722;-62
2023/10/23 08:53:33;;;;;;;5.25;3.28;;;10.00;99.90;;;;;;5026962;28;20064;-61
2023/10/23 08:56:07;;;;;;;3.58;2.83;;;10.00;99.90;;;;;;5030403;28;20064;-71
2023/10/23 08:58:37;;;;;;;3.47;3.17;;;10.00;99.90;;;;;;5030044;28;20049;-62
2023/10/23 09:01:04;;;;;;;3.70;3.05;;;10.10;99.90;;;;;;5029789;28;20049;-61
2023/10/23 09:03:32;;;;;;;3.08;2.78;;;10.10;99.90;;;;;;5026530;28;20045;-65
2023/10/23 09:06:19;;;;;;;4.05;3.10;;;10.10;99.90;;;;;;5022198;28;20168;-61
2023/10/23 09:08:46;;;;;;;3.35;2.88;;;10.10;99.90;;;;;;5033552;28;20057;-66
2023/10/23 09:11:13;;;;;;;3.42;2.67;;;10.10;99.90;;;;;;5024293;28;20045;-64
2023/10/23 09:13:41;;;;;;;2.53;2.03;;;10.10;99.90;;;;;;5023704;28;20835;-61
2023/10/23 09:16:10;;;;;;;2.97;2.20;;;10.10;99.90;;;;;;5027668;28;20041;-60
2023/10/23 09:18:51;;;;;;;3.10;2.80;;;10.10;99.90;;;;;;5027808;28;20052;-64
2023/10/23 09:21:18;;;;;;;3.58;2.90;;;10.10;99.90;;;;;;5031677;28;20034;-65
2023/10/23 09:23:53;;;;;;;4.03;3.05;;;10.10;99.90;;;;;;5031190;28;20037;-61
2023/10/23 09:26:22;;;;;;;4.05;3.33;;;10.10;99.90;;;;;;5029804;28;20049;-64
2023/10/23 09:28:52;;;;;;;5.85;3.85;;;10.20;99.90;;;;;;5029874;28;20045;-62
2023/10/23 09:31:22;;;;;;;5.15;4.65;;;10.20;99.90;;;;;;5028813;28;20569;-62
2023/10/23 09:33:50;;;;;;;5.22;4.68;;;10.20;99.90;;;;;;5034959;28;20040;-65
2023/10/23 09:36:18;;;;;;;7.22;5.13;;;10.20;99.90;;;;;;5032848;28;20043;-64
2023/10/23 09:38:58;;;;;;;9.93;5.45;;;10.30;99.90;;;;;;5025612;28;20045;-64
2023/10/23 09:41:27;;;;;;;5.75;4.93;;;10.30;99.90;;;;;;5030603;28;20557;-62
2023/10/23 09:43:58;;;;;;;6.63;5.60;;;10.30;99.90;;;;;;5029637;28;20045;-64
2023/10/23 09:46:25;;;;;;;7.75;5.95;;;10.30;99.90;;;;;;5028529;28;20124;-61
2023/10/23 09:48:54;;;;;;;6.82;5.95;;;10.30;99.90;;;;;;5029108;28;20502;-64
2023/10/23 09:51:37;;;;;;;6.35;5.60;;;10.30;99.90;;;;;;5026614;28;20036;-60
2023/10/23 09:54:16;;;;;;;8.32;5.18;;;10.30;99.90;;;;;;5027931;28;20051;-61
2023/10/23 09:56:48;;;;;;;7.70;5.88;;;10.40;99.90;;;;;;5031072;28;20882;-67
2023/10/23 09:59:18;;;;;;;8.40;5.25;;;10.40;99.90;;;;;;5027944;28;20655;-60
2023/10/23 10:01:49;;;;;;;9.43;6.38;;;10.40;99.90;;;;;;5022158;28;20050;-60
2023/10/23 10:04:21;;;;;;;7.88;7.07;;;10.40;99.90;;;;;;5034923;28;20041;-66
2023/10/23 10:06:55;;;;;;;7.53;5.55;;;10.40;99.90;;;;;;5030268;28;20132;-62
2023/10/23 10:09:24;;;;;;;6.47;5.72;;;10.40;99.90;;;;;;5029262;28;20380;-62
2023/10/23 10:11:55;;;;;;;6.53;5.80;;;10.40;99.90;;;;;;5026103;28;20044;-61
2023/10/23 10:14:24;;;;;;;6.75;4.60;;;10.50;99.90;;;;;;5023976;28;20110;-63
2023/10/23 10:16:55;;;;;;;6.25;5.05;;;10.50;99.90;;;;;;5036422;28;20048;-64
2023/10/23 10:19:24;;;;;;;5.72;4.97;;;10.50;99.90;;;;;;5023959;28;20122;-60
2023/10/23 10:22:04;;;;;;;4.73;4.33;;;10.50;99.90;;;;;;5031454;28;20066;-62
2023/10/23 10:24:34;;;;;;;4.40;3.83;;;10.50;99.90;;;;;;5025873;28;20070;-62
2023/10/23 10:27:03;;;;;;;4.50;4.03;;;10.50;99.90;;;;;;5034304;28;20148;-66
2023/10/23 10:29:31;;;;;;;4.90;4.25;;;10.40;99.90;;;;;;5035161;28;20052;-61
2023/10/23 10:32:11;;;;;;;5.28;4.50;;;10.40;99.90;;;;;;5031052;28;20053;-62
2023/10/23 10:34:46;;;;;;;4.53;3.80;;;10.40;99.90;;;;;;5030385;28;20099;-61
2023/10/23 10:37:23;;;;;;;6.00;3.95;;;10.40;99.90;;;;;;5031157;28;20487;-62
2023/10/23 10:40:01;;;;;;;5.30;4.72;;;10.40;99.90;;;;;;5031798;28;20509;-64
2023/10/23 10:42:29;;;;;;;5.53;4.55;;;10.40;99.90;;;;;;5033916;28;20098;-60
2023/10/23 10:45:07;;;;;;;6.50;4.38;;;10.40;99.90;;;;;;5036473;28;20045;-64
2023/10/23 10:47:46;;;;;;;4.90;3.95;;;10.40;99.90;;;;;;5035554;28;20055;-61
2023/10/23 10:50:30;;;;;;;5.50;4.43;;;10.40;99.90;;;;;;5031452;28;20040;-62
2023/10/23 10:53:02;;;;;;;6.05;4.53;;;10.40;99.90;;;;;;5029165;28;20042;-65
2023/10/23 10:55:29;;;;;;;4.40;4.00;;;10.40;99.90;;;;;;5026485;28;20192;-62
2023/10/23 10:57:58;;;;;;;6.63;5.55;;;10.30;99.90;;;;;;5038317;28;20128;-65
2023/10/23 11:00:28;;;;;;;10.25;5.97;;;10.30;99.90;;;;;;5036136;28;20463;-61
2023/10/23 11:02:56;;;;;;;9.63;5.68;;;10.30;99.90;;;;;;5028948;28;20081;-64
2023/10/23 11:05:24;;;;;;;8.48;4.47;;;10.30;99.90;;;;;;5035029;28;20045;-63
2023/10/23 11:07:51;;;;;;;9.75;5.07;;;10.30;99.90;;;;;;5032527;28;20088;-61
2023/10/23 11:10:22;;;;;;;6.70;5.13;;;10.30;99.90;;;;;;5032826;28;20033;-61
2023/10/23 11:12:50;;;;;;;7.38;5.25;;;10.30;99.90;;;;;;5026552;28;20045;-65
2023/10/23 11:15:17;;;;;;;5.55;4.45;;;10.30;99.90;;;;;;5029986;28;20073;-61
2023/10/23 11:17:45;;;;;;;6.43;5.25;;;10.30;99.90;;;;;;5033825;28;20167;-62
2023/10/23 11:20:13;;;;;;;7.93;5.07;;;10.30;99.90;;;;;;5028503;28;20099;-64
2023/10/23 11:22:45;;;;;;;8.05;6.20;;;10.30;99.90;;;;;;5032629;28;20132;-62
2023/10/23 11:25:12;;;;;;;7.05;5.18;;;10.30;99.90;;;;;;5031337;28;20045;-68
2023/10/23 11:27:39;;;;;;;7.32;5.15;;;10.30;99.90;;;;;;5029717;28;20042;-62
2023/10/23 11:30:08;;;;;;;6.10;4.80;;;10.30;99.90;;;;;;5037535;28;20127;-61
2023/10/23 11:32:35;;;;;;;8.90;6.18;;;10.30;99.90;;;;;;5029229;28;20037;-61
2023/10/23 11:35:04;;;;;;;6.60;4.95;;;10.30;99.90;;;;;;5032058;28;20820;-67
2023/10/23 11:37:39;;;;;;;6.28;4.50;;;10.30;99.90;;;;;;5028711;28;20049;-61
2023/10/23 11:40:08;;;;;;;6.15;4.65;;;10.30;99.90;;;;;;5039654;28;20040;-64
2023/10/23 11:43:01;;;;;;;5.03;4.25;;;10.30;99.90;;;;;;5029701;28;20045;-66
2023/10/23 11:45:29;;;;;;;5.45;3.50;;;10.30;99.90;;;;;;5031554;28;20422;-62
2023/10/23 11:47:56;;;;;;;4.22;3.67;;;10.30;99.90;;;;;;5034712;28;20280;-68
2023/10/23 11:50:25;;;;;;;4.57;3.03;;;10.30;99.90;;;;;;5024109;28;20480;-64
2023/10/23 11:52:52;;;;;;;5.90;3.20;;;10.30;99.90;;;;;;5032210;28;20515;-62
2023/10/23 11:55:19;;;;;;;3.03;2.72;;;10.30;99.90;;;;;;5032638;28;20076;-65
2023/10/23 11:57:50;;;;;;;4.75;2.72;;;10.40;99.90;;;;;;5025177;28;20049;-63
2023/10/23 12:00:21;;;;;;;4.55;3.15;;;10.40;99.90;;;;;;5028451;28;20038;-62
2023/10/23 12:02:49;;;;;;;7.63;3.80;;;10.40;99.90;;;;;;5034145;28;20052;-63
2023/10/23 12:05:21;;;;;;;2.47;2.15;;;10.50;99.90;;;;;;5033679;28;20487;-65
2023/10/23 12:07:50;;;;;;;4.00;3.08;;;10.50;99.90;;;;;;5032407;28;20087;-64
2023/10/23 12:10:17;;;;;;;3.53;3.22;;;10.50;99.90;;;;;;5028864;28;20052;-68
2023/10/23 12:12:45;;;;;;;3.58;2.55;;;10.60;99.90;;;;;;5029614;28;20152;-63
2023/10/23 12:15:13;;;;;;;3.00;2.70;;;10.60;99.90;;;;;;5027859;28;20079;-64
2023/10/23 12:17:41;;;;;;;3.53;2.40;;;10.60;99.90;;;;;;5037447;28;20535;-60
2023/10/23 12:20:14;;;;;;;2.30;1.85;;;10.60;99.90;;;;;;5026330;28;20048;-65
2023/10/23 12:22:46;;;;;;;2.47;1.58;;;10.60;99.90;;;;;;5026714;28;20045;-63
2023/10/23 12:25:16;;;;;;;2.05;1.73;;;10.60;99.90;;;;;;5029351;28;20041;-66
2023/10/23 12:27:43;;;;;;;3.28;1.83;;;10.60;99.90;;;;;;5030083;28;20095;-62
2023/10/23 12:30:11;;;;;;;1.70;1.10;;;10.60;99.90;;;;;;5028223;28;20713;-62
2023/10/23 12:32:42;;;;;;;1.23;1.13;;;10.60;99.90;;;;;;5038607;28;20048;-62
2023/10/23 12:35:29;;;;;;;1.63;1.35;;;10.60;99.90;;;;;;5032211;28;20058;-62
2023/10/23 12:37:56;;;;;;;1.05;0.93;;;10.60;99.90;;;;;;5029201;28;20407;-61
2023/10/23 12:40:23;;;;;;;1.45;1.35;;;10.60;99.90;;;;;;5035074;28;20128;-63
2023/10/23 12:42:56;;;;;;;2.53;2.15;;;10.60;99.90;;;;;;5022732;28;20033;-62
2023/10/23 12:45:23;;;;;;;2.53;2.22;;;10.50;99.90;;;;;;5028510;28;20081;-64
2023/10/23 12:47:50;;;;;;;3.28;2.42;;;10.50;99.90;;;;;;5024351;28;20118;-64
2023/10/23 12:50:17;;;;;;;2.45;2.13;;;10.50;99.90;;;;;;5034986;28;20056;-69
2023/10/23 12:52:44;;;;;;;2.47;2.22;;;10.50;99.90;;;;;;5030717;28;20148;-61
2023/10/23 12:55:14;;;;;;;3.17;2.60;;;10.50;99.90;;;;;;5030480;28;20053;-64
2023/10/23 12:57:42;;;;;;;3.45;3.15;;;10.50;99.90;;;;;;5027104;28;20045;-61
2023/10/23 13:00:11;;;;;;;4.18;3.03;;;10.40;99.90;;;;;;5030211;28;20107;-63
2023/10/23 13:02:41;;;;;;;4.60;4.20;;;10.40;99.90;;;;;;5033821;28;20040;-61